sensor_id;sensor_type;location;lat;lon;timestamp;pressure;altitude;pressure_sealevel;temperature;humidity
33075;BME280;19433;51.292;6.868;2023-03-04T00:00:29;101333.34;;;2.64;100.00
33075;BME280;19433;51.292;6.868;2023-03-04T00:02:54;101337.44;;;2.70;100.00
33075;BME280;19433;51.292;6.868;2023-03-04T00:05:20;101317.72;;;2.66;100.00
33075;BME280;19433;51.292;6.868;2023-03-04T00:07:45;101319.06;;;2.72;100.00
33075;BME280;19433;51.292;6.868;2023-03-04T00:10:18;101319.50;;;2.77;100.00
33075;BME280;19433;51.292;6.868;2023-03-04T00:12:43;101326.38;;;2.71;100.00
33075;BME280;19433;51.292;6.868;2023-03-04T00:15:10;101328.28;;;2.80;100.00
33075;BME280;19433;51.292;6.868;2023-03-04T00:17:35;101325.69;;;2.79;100.00
33075;BME280;19433;51.292;6.868;2023-03-04T00:20:00;101319.84;;;2.83;99.25
33075;BME280;19433;51.292;6.868;2023-03-04T00:22:26;101319.31;;;2.90;98.77
33075;BME280;19433;51.292;6.868;2023-03-04T00:24:51;101317.13;;;2.83;99.26
33075;BME280;19433;51.292;6.868;2023-03-04T00:27:16;101328.16;;;2.82;99.45
33075;BME280;19433;51.292;6.868;2023-03-04T00:29:41;101325.31;;;2.83;99.68
33075;BME280;19433;51.292;6.868;2023-03-04T00:32:07;101327.31;;;2.81;99.95
33075;BME280;19433;51.292;6.868;2023-03-04T00:34:32;101312.47;;;2.74;99.69
33075;BME280;19433;51.292;6.868;2023-03-04T00:36:57;101319.50;;;2.77;100.00
33075;BME280;19433;51.292;6.868;2023-03-04T00:39:26;101300.41;;;2.77;99.97
33075;BME280;19433;51.292;6.868;2023-03-04T00:41:52;101310.81;;;2.83;99.59
33075;BME280;19433;51.292;6.868;2023-03-04T00:44:18;101304.13;;;2.76;99.30
33075;BME280;19433;51.292;6.868;2023-03-04T00:46:43;101307.41;;;2.70;100.00
33075;BME280;19433;51.292;6.868;2023-03-04T00:49:08;101313.00;;;2.68;100.00
33075;BME280;19433;51.292;6.868;2023-03-04T00:51:34;101306.94;;;2.65;100.00
33075;BME280;19433;51.292;6.868;2023-03-04T00:54:00;101307.16;;;2.73;100.00
33075;BME280;19433;51.292;6.868;2023-03-04T00:56:25;101304.28;;;2.74;100.00
33075;BME280;19433;51.292;6.868;2023-03-04T00:58:50;101302.44;;;2.75;100.00
33075;BME280;19433;51.292;6.868;2023-03-04T01:01:16;101300.97;;;2.71;100.00
33075;BME280;19433;51.292;6.868;2023-03-04T01:03:41;101307.41;;;2.70;100.00
33075;BME280;19433;51.292;6.868;2023-03-04T01:06:07;101298.09;;;2.72;100.00
33075;BME280;19433;51.292;6.868;2023-03-04T01:08:32;101297.97;;;2.74;100.00
33075;BME280;19433;51.292;6.868;2023-03-04T01:10:57;101294.56;;;2.81;100.00
33075;BME280;19433;51.292;6.868;2023-03-04T01:13:23;101299.50;;;2.88;100.00
33075;BME280;19433;51.292;6.868;2023-03-04T01:15:48;101289.38;;;2.78;100.00
33075;BME280;19433;51.292;6.868;2023-03-04T01:18:13;101292.09;;;2.78;100.00
33075;BME280;19433;51.292;6.868;2023-03-04T01:20:39;101292.97;;;2.79;100.00
33075;BME280;19433;51.292;6.868;2023-03-04T01:23:04;101279.56;;;2.76;100.00
33075;BME280;19433;51.292;6.868;2023-03-04T01:25:29;101283.25;;;2.86;100.00
33075;BME280;19433;51.292;6.868;2023-03-04T01:27:55;101278.91;;;2.83;100.00
33075;BME280;19433;51.292;6.868;2023-03-04T01:30:20;101296.34;;;2.92;100.00
33075;BME280;19433;51.292;6.868;2023-03-04T01:32:45;101287.97;;;2.84;100.00
33075;BME280;19433;51.292;6.868;2023-03-04T01:35:13;101286.09;;;2.85;100.00
33075;BME280;19433;51.292;6.868;2023-03-04T01:37:39;101277.91;;;2.85;100.00
33075;BME280;19433;51.292;6.868;2023-03-04T01:40:04;101284.63;;;2.80;100.00
33075;BME280;19433;51.292;6.868;2023-03-04T01:42:33;101264.94;;;2.77;100.00
33075;BME280;19433;51.292;6.868;2023-03-04T01:45:00;101284.38;;;2.83;100.00
33075;BME280;19433;51.292;6.868;2023-03-04T01:47:32;101258.78;;;2.75;100.00
33075;BME280;19433;51.292;6.868;2023-03-04T01:50:00;101277.53;;;2.89;100.00
33075;BME280;19433;51.292;6.868;2023-03-04T01:52:26;101273.34;;;2.85;100.00
33075;BME280;19433;51.292;6.868;2023-03-04T01:54:52;101273.06;;;2.88;100.00
33075;BME280;19433;51.292;6.868;2023-03-04T01:57:20;101262.16;;;2.88;100.00
33075;BME280;19433;51.292;6.868;2023-03-04T01:59:47;101274.38;;;2.94;100.00
33075;BME280;19433;51.292;6.868;2023-03-04T02:02:31;101261.31;;;2.97;100.00
33075;BME280;19433;51.292;6.868;2023-03-04T02:04:57;101262.53;;;3.04;100.00
33075;BME280;19433;51.292;6.868;2023-03-04T02:07:23;101265.69;;;3.09;100.00
33075;BME280;19433;51.292;6.868;2023-03-04T02:09:48;101256.75;;;3.07;100.00
33075;BME280;19433;51.292;6.868;2023-03-04T02:12:13;101253.63;;;3.12;99.44
33075;BME280;19433;51.292;6.868;2023-03-04T02:14:40;101255.34;;;3.03;99.98
33075;BME280;19433;51.292;6.868;2023-03-04T02:17:10;101248.88;;;3.04;99.86
33075;BME280;19433;51.292;6.868;2023-03-04T02:19:43;101257.06;;;3.04;99.58
33075;BME280;19433;51.292;6.868;2023-03-04T02:22:13;101249.63;;;3.16;99.15
33075;BME280;19433;51.292;6.868;2023-03-04T02:24:44;101259.28;;;3.20;98.87
33075;BME280;19433;51.292;6.868;2023-03-04T02:27:10;101240.31;;;3.18;97.75
33075;BME280;19433;51.292;6.868;2023-03-04T02:29:36;101252.38;;;3.26;97.77
33075;BME280;19433;51.292;6.868;2023-03-04T02:32:01;101253.38;;;3.25;97.97
33075;BME280;19433;51.292;6.868;2023-03-04T02:34:32;101252.72;;;3.32;97.29
33075;BME280;19433;51.292;6.868;2023-03-04T02:36:58;101254.88;;;3.38;96.76
33075;BME280;19433;51.292;6.868;2023-03-04T02:39:41;101248.84;;;3.35;96.89
33075;BME280;19433;51.292;6.868;2023-03-04T02:42:08;101243.81;;;3.40;95.95
33075;BME280;19433;51.292;6.868;2023-03-04T02:44:36;101237.06;;;3.34;96.49
33075;BME280;19433;51.292;6.868;2023-03-04T02:47:03;101244.53;;;3.42;96.67
33075;BME280;19433;51.292;6.868;2023-03-04T02:49:30;101236.06;;;3.35;96.57
33075;BME280;19433;51.292;6.868;2023-03-04T02:52:02;101243.06;;;3.38;96.63
33075;BME280;19433;51.292;6.868;2023-03-04T02:54:28;101241.66;;;3.34;96.64
33075;BME280;19433;51.292;6.868;2023-03-04T02:57:00;101225.69;;;3.39;96.38
33075;BME280;19433;51.292;6.868;2023-03-04T02:59:26;101228.88;;;3.44;96.18
33075;BME280;19433;51.292;6.868;2023-03-04T03:01:52;101209.44;;;3.37;96.22
33075;BME280;19433;51.292;6.868;2023-03-04T03:04:19;101229.19;;;3.50;95.83
33075;BME280;19433;51.292;6.868;2023-03-04T03:06:44;101226.00;;;3.55;95.31
33075;BME280;19433;51.292;6.868;2023-03-04T03:09:09;101225.41;;;3.51;95.87
33075;BME280;19433;51.292;6.868;2023-03-04T03:11:35;101224.59;;;3.51;96.08
33075;BME280;19433;51.292;6.868;2023-03-04T03:14:00;101217.69;;;3.57;95.36
33075;BME280;19433;51.292;6.868;2023-03-04T03:16:26;101228.19;;;3.61;94.88
33075;BME280;19433;51.292;6.868;2023-03-04T03:18:51;101215.09;;;3.55;95.56
33075;BME280;19433;51.292;6.868;2023-03-04T03:21:17;101214.81;;;3.58;95.70
33075;BME280;19433;51.292;6.868;2023-03-04T03:23:42;101213.34;;;3.54;95.54
33075;BME280;19433;51.292;6.868;2023-03-04T03:26:08;101220.13;;;3.50;95.83
33075;BME280;19433;51.292;6.868;2023-03-04T03:28:33;101218.25;;;3.50;95.88
33075;BME280;19433;51.292;6.868;2023-03-04T03:30:59;101205.44;;;3.41;96.78
33075;BME280;19433;51.292;6.868;2023-03-04T03:33:25;101218.53;;;3.47;95.97
33075;BME280;19433;51.292;6.868;2023-03-04T03:35:53;101217.81;;;3.55;95.51
33075;BME280;19433;51.292;6.868;2023-03-04T03:38:18;101211.50;;;3.54;95.29
33075;BME280;19433;51.292;6.868;2023-03-04T03:40:43;101213.81;;;3.49;95.39
33075;BME280;19433;51.292;6.868;2023-03-04T03:43:09;101208.56;;;3.37;95.34
33075;BME280;19433;51.292;6.868;2023-03-04T03:45:35;101202.97;;;3.38;95.33
33075;BME280;19433;51.292;6.868;2023-03-04T03:48:00;101213.63;;;3.41;95.45
33075;BME280;19433;51.292;6.868;2023-03-04T03:50:26;101207.47;;;3.49;95.51
33075;BME280;19433;51.292;6.868;2023-03-04T03:52:53;101212.34;;;3.55;95.12
33075;BME280;19433;51.292;6.868;2023-03-04T03:55:18;101206.47;;;3.50;94.91
33075;BME280;19433;51.292;6.868;2023-03-04T03:57:43;101197.41;;;3.49;94.27
33075;BME280;19433;51.292;6.868;2023-03-04T04:00:09;101206.75;;;3.57;94.27
33075;BME280;19433;51.292;6.868;2023-03-04T04:02:34;101207.75;;;3.46;94.18
33075;BME280;19433;51.292;6.868;2023-03-04T04:05:00;101208.63;;;3.56;93.34
33075;BME280;19433;51.292;6.868;2023-03-04T04:07:25;101210.88;;;3.41;94.17
33075;BME280;19433;51.292;6.868;2023-03-04T04:09:51;101203.56;;;3.42;94.19
33075;BME280;19433;51.292;6.868;2023-03-04T04:12:18;101199.09;;;3.41;93.66
33075;BME280;19433;51.292;6.868;2023-03-04T04:14:43;101208.47;;;3.48;93.83
33075;BME280;19433;51.292;6.868;2023-03-04T04:17:08;101195.69;;;3.48;93.86
33075;BME280;19433;51.292;6.868;2023-03-04T04:19:34;101204.16;;;3.55;93.86
33075;BME280;19433;51.292;6.868;2023-03-04T04:22:00;101198.13;;;3.61;93.25
33075;BME280;19433;51.292;6.868;2023-03-04T04:24:25;101183.16;;;3.56;93.36
33075;BME280;19433;51.292;6.868;2023-03-04T04:26:50;101203.59;;;3.61;93.48
33075;BME280;19433;51.292;6.868;2023-03-04T04:29:16;101191.94;;;3.59;93.49
33075;BME280;19433;51.292;6.868;2023-03-04T04:31:41;101210.06;;;3.60;93.33
33075;BME280;19433;51.292;6.868;2023-03-04T04:34:07;101200.16;;;3.69;92.97
33075;BME280;19433;51.292;6.868;2023-03-04T04:36:33;101202.16;;;3.67;92.73
33075;BME280;19433;51.292;6.868;2023-03-04T04:38:59;101197.13;;;3.62;93.05
33075;BME280;19433;51.292;6.868;2023-03-04T04:41:27;101209.94;;;3.62;92.96
33075;BME280;19433;51.292;6.868;2023-03-04T04:43:54;101197.69;;;3.56;93.42
33075;BME280;19433;51.292;6.868;2023-03-04T04:46:20;101208.78;;;3.64;93.38
33075;BME280;19433;51.292;6.868;2023-03-04T04:48:45;101205.75;;;3.67;93.12
33075;BME280;19433;51.292;6.868;2023-03-04T04:51:11;101196.00;;;3.65;93.12
33075;BME280;19433;51.292;6.868;2023-03-04T04:53:37;101206.34;;;3.61;93.07
33075;BME280;19433;51.292;6.868;2023-03-04T04:56:18;101217.00;;;3.64;93.28
33075;BME280;19433;51.292;6.868;2023-03-04T04:58:45;101207.94;;;3.64;93.52
33075;BME280;19433;51.292;6.868;2023-03-04T05:01:11;101203.88;;;3.58;93.62
33075;BME280;19433;51.292;6.868;2023-03-04T05:03:37;101214.13;;;3.66;93.58
33075;BME280;19433;51.292;6.868;2023-03-04T05:06:05;101212.94;;;3.68;93.13
33075;BME280;19433;51.292;6.868;2023-03-04T05:08:30;101212.94;;;3.59;94.24
33075;BME280;19433;51.292;6.868;2023-03-04T05:10:56;101219.28;;;3.59;93.84
33075;BME280;19433;51.292;6.868;2023-03-04T05:13:21;101211.22;;;3.58;94.04
33075;BME280;19433;51.292;6.868;2023-03-04T05:15:50;101204.59;;;3.50;94.56
33075;BME280;19433;51.292;6.868;2023-03-04T05:18:15;101213.06;;;3.57;94.36
33075;BME280;19433;51.292;6.868;2023-03-04T05:20:40;101213.06;;;3.47;95.09
33075;BME280;19433;51.292;6.868;2023-03-04T05:23:06;101203.75;;;3.50;94.86
33075;BME280;19433;51.292;6.868;2023-03-04T05:25:31;101206.63;;;3.58;94.46
33075;BME280;19433;51.292;6.868;2023-03-04T05:27:57;101210.06;;;3.60;94.20
33075;BME280;19433;51.292;6.868;2023-03-04T05:30:22;101202.88;;;3.59;94.74
33075;BME280;19433;51.292;6.868;2023-03-04T05:32:47;101209.50;;;3.66;94.55
33075;BME280;19433;51.292;6.868;2023-03-04T05:35:12;101220.44;;;3.66;94.18
33075;BME280;19433;51.292;6.868;2023-03-04T05:37:38;101214.13;;;3.75;94.10
33075;BME280;19433;51.292;6.868;2023-03-04T05:40:04;101212.38;;;3.65;94.67
33075;BME280;19433;51.292;6.868;2023-03-04T05:42:29;101204.03;;;3.57;94.82
33075;BME280;19433;51.292;6.868;2023-03-04T05:44:55;101219.84;;;3.63;94.70
33075;BME280;19433;51.292;6.868;2023-03-04T05:47:21;101213.81;;;3.59;94.88
33075;BME280;19433;51.292;6.868;2023-03-04T05:49:46;101200.28;;;3.58;95.35
33075;BME280;19433;51.292;6.868;2023-03-04T05:52:12;101214.81;;;3.68;94.53
33075;BME280;19433;51.292;6.868;2023-03-04T05:54:37;101209.78;;;3.63;94.80
33075;BME280;19433;51.292;6.868;2023-03-04T05:57:03;101210.78;;;3.62;95.07
33075;BME280;19433;51.292;6.868;2023-03-04T05:59:28;101213.53;;;3.62;95.34
33075;BME280;19433;51.292;6.868;2023-03-04T06:01:53;101212.38;;;3.74;94.91
33075;BME280;19433;51.292;6.868;2023-03-04T06:04:19;101214.41;;;3.72;94.56
33075;BME280;19433;51.292;6.868;2023-03-04T06:06:44;101213.94;;;3.67;94.80
33075;BME280;19433;51.292;6.868;2023-03-04T06:09:14;101215.25;;;3.63;94.93
33075;BME280;19433;51.292;6.868;2023-03-04T06:11:39;101220.84;;;3.62;94.78
33075;BME280;19433;51.292;6.868;2023-03-04T06:14:05;101221.00;;;3.70;93.98
33075;BME280;19433;51.292;6.868;2023-03-04T06:16:31;101219.13;;;3.70;94.76
33075;BME280;19433;51.292;6.868;2023-03-04T06:18:56;101230.50;;;3.66;94.89
33075;BME280;19433;51.292;6.868;2023-03-04T06:21:21;101228.66;;;3.66;94.85
33075;BME280;19433;51.292;6.868;2023-03-04T06:23:47;101230.06;;;3.70;94.47
33075;BME280;19433;51.292;6.868;2023-03-04T06:26:12;101227.91;;;3.64;94.64
33075;BME280;19433;51.292;6.868;2023-03-04T06:28:40;101237.53;;;3.68;95.04
33075;BME280;19433;51.292;6.868;2023-03-04T06:31:06;101225.19;;;3.74;94.22
33075;BME280;19433;51.292;6.868;2023-03-04T06:33:32;101232.06;;;3.68;94.64
33075;BME280;19433;51.292;6.868;2023-03-04T06:35:57;101236.97;;;3.74;95.28
33075;BME280;19433;51.292;6.868;2023-03-04T06:38:24;101244.31;;;3.74;94.84
33075;BME280;19433;51.292;6.868;2023-03-04T06:40:49;101242.03;;;3.79;94.78
33075;BME280;19433;51.292;6.868;2023-03-04T06:43:15;101242.84;;;3.70;94.67
33075;BME280;19433;51.292;6.868;2023-03-04T06:45:41;101234.25;;;3.74;94.50
33075;BME280;19433;51.292;6.868;2023-03-04T06:48:06;101232.94;;;3.59;94.48
33075;BME280;19433;51.292;6.868;2023-03-04T06:50:32;101241.59;;;3.74;94.57
33075;BME280;19433;51.292;6.868;2023-03-04T06:52:57;101244.63;;;3.80;94.91
33075;BME280;19433;51.292;6.868;2023-03-04T06:55:23;101259.16;;;3.91;94.03
33075;BME280;19433;51.292;6.868;2023-03-04T06:57:48;101259.59;;;4.05;93.71
33075;BME280;19433;51.292;6.868;2023-03-04T07:00:14;101244.22;;;3.95;93.37
33075;BME280;19433;51.292;6.868;2023-03-04T07:02:39;101249.81;;;3.93;93.92
33075;BME280;19433;51.292;6.868;2023-03-04T07:05:05;101254.41;;;3.93;93.75
33075;BME280;19433;51.292;6.868;2023-03-04T07:07:30;101264.47;;;4.02;94.12
33075;BME280;19433;51.292;6.868;2023-03-04T07:09:56;101257.16;;;3.93;93.74
33075;BME280;19433;51.292;6.868;2023-03-04T07:12:21;101254.00;;;3.97;93.42
33075;BME280;19433;51.292;6.868;2023-03-04T07:14:46;101257.72;;;3.96;93.21
33075;BME280;19433;51.292;6.868;2023-03-04T07:17:12;101260.19;;;4.09;93.06
33075;BME280;19433;51.292;6.868;2023-03-04T07:19:37;101256.44;;;4.19;92.00
33075;BME280;19433;51.292;6.868;2023-03-04T07:22:02;101254.41;;;4.02;92.73
33075;BME280;19433;51.292;6.868;2023-03-04T07:24:27;101260.44;;;4.15;92.65
33075;BME280;19433;51.292;6.868;2023-03-04T07:26:53;101264.06;;;4.06;92.46
33075;BME280;19433;51.292;6.868;2023-03-04T07:29:18;101261.91;;;4.19;91.78
33075;BME280;19433;51.292;6.868;2023-03-04T07:31:43;101262.34;;;4.24;92.31
33075;BME280;19433;51.292;6.868;2023-03-04T07:34:11;101265.94;;;4.25;92.12
33075;BME280;19433;51.292;6.868;2023-03-04T07:36:37;101272.13;;;4.27;92.37
33075;BME280;19433;51.292;6.868;2023-03-04T07:39:03;101268.38;;;4.28;93.11
33075;BME280;19433;51.292;6.868;2023-03-04T07:41:29;101270.69;;;4.33;92.71
33075;BME280;19433;51.292;6.868;2023-03-04T07:43:56;101271.53;;;4.33;92.80
33075;BME280;19433;51.292;6.868;2023-03-04T07:46:22;101263.06;;;4.27;93.31
33075;BME280;19433;51.292;6.868;2023-03-04T07:48:47;101273.13;;;4.36;93.29
33075;BME280;19433;51.292;6.868;2023-03-04T07:51:15;101276.31;;;4.41;93.91
33075;BME280;19433;51.292;6.868;2023-03-04T07:53:42;101273.25;;;4.53;93.40
33075;BME280;19433;51.292;6.868;2023-03-04T07:56:12;101283.00;;;4.75;92.64
33075;BME280;19433;51.292;6.868;2023-03-04T07:58:38;101288.19;;;4.78;92.04
33075;BME280;19433;51.292;6.868;2023-03-04T08:01:18;101293.78;;;4.96;91.71
33075;BME280;19433;51.292;6.868;2023-03-04T08:03:43;101284.03;;;4.65;94.21
33075;BME280;19433;51.292;6.868;2023-03-04T08:06:11;101287.06;;;4.71;95.87
33075;BME280;19433;51.292;6.868;2023-03-04T08:08:37;101279.44;;;4.65;96.13
33075;BME280;19433;51.292;6.868;2023-03-04T08:11:06;101286.34;;;4.69;96.67
33075;BME280;19433;51.292;6.868;2023-03-04T08:13:33;101277.22;;;4.88;97.28
33075;BME280;19433;51.292;6.868;2023-03-04T08:15:58;101284.50;;;5.07;95.78
33075;BME280;19433;51.292;6.868;2023-03-04T08:18:24;101276.38;;;5.52;93.71
33075;BME280;19433;51.292;6.868;2023-03-04T08:20:50;101282.19;;;6.21;90.38
33075;BME280;19433;51.292;6.868;2023-03-04T08:23:16;101277.91;;;6.62;87.01
33075;BME280;19433;51.292;6.868;2023-03-04T08:25:42;101291.78;;;7.04;85.96
33075;BME280;19433;51.292;6.868;2023-03-04T08:28:08;101281.19;;;7.44;82.87
33075;BME280;19433;51.292;6.868;2023-03-04T08:30:34;101281.19;;;7.44;81.87
33075;BME280;19433;51.292;6.868;2023-03-04T08:33:00;101296.50;;;8.38;79.51
33075;BME280;19433;51.292;6.868;2023-03-04T08:35:26;101293.22;;;9.00;74.24
33075;BME280;19433;51.292;6.868;2023-03-04T08:37:51;101287.69;;;9.00;73.37
33075;BME280;19433;51.292;6.868;2023-03-04T08:40:16;101291.50;;;8.82;74.14
33075;BME280;19433;51.292;6.868;2023-03-04T08:42:42;101286.59;;;8.28;76.21
33075;BME280;19433;51.292;6.868;2023-03-04T08:45:08;101279.88;;;8.06;75.89
33075;BME280;19433;51.292;6.868;2023-03-04T08:47:33;101293.75;;;8.79;75.86
33075;BME280;19433;51.292;6.868;2023-03-04T08:49:59;101285.66;;;8.86;74.83
33075;BME280;19433;51.292;6.868;2023-03-04T08:52:24;101304.75;;;8.71;74.91
33075;BME280;19433;51.292;6.868;2023-03-04T08:54:49;101293.84;;;8.21;76.50
33075;BME280;19433;51.292;6.868;2023-03-04T08:57:15;101293.47;;;7.57;80.47
33075;BME280;19433;51.292;6.868;2023-03-04T08:59:40;101288.50;;;7.27;81.47
33075;BME280;19433;51.292;6.868;2023-03-04T09:02:05;101286.13;;;7.06;82.87
33075;BME280;19433;51.292;6.868;2023-03-04T09:04:31;101286.53;;;6.67;84.32
33075;BME280;19433;51.292;6.868;2023-03-04T09:06:56;101281.75;;;6.69;84.80
33075;BME280;19433;51.292;6.868;2023-03-04T09:09:21;101285.69;;;6.67;85.80
33075;BME280;19433;51.292;6.868;2023-03-04T09:11:47;101291.31;;;6.65;86.16
33075;BME280;19433;51.292;6.868;2023-03-04T09:14:12;101283.84;;;6.76;85.89
33075;BME280;19433;51.292;6.868;2023-03-04T09:16:37;101290.34;;;6.75;86.15
33075;BME280;19433;51.292;6.868;2023-03-04T09:19:02;101294.72;;;6.24;89.81
33075;BME280;19433;51.292;6.868;2023-03-04T09:21:28;101305.78;;;6.32;90.39
33075;BME280;19433;51.292;6.868;2023-03-04T09:23:53;101293.84;;;6.06;94.08
33075;BME280;19433;51.292;6.868;2023-03-04T09:26:22;101292.44;;;6.02;95.35
33075;BME280;19433;51.292;6.868;2023-03-04T09:28:58;101295.47;;;5.98;95.33
33075;BME280;19433;51.292;6.868;2023-03-04T09:31:26;101281.94;;;6.15;96.33
33075;BME280;19433;51.292;6.868;2023-03-04T09:33:52;101289.28;;;6.14;97.50
33075;BME280;19433;51.292;6.868;2023-03-04T09:36:18;101292.19;;;6.13;98.85
33075;BME280;19433;51.292;6.868;2023-03-04T09:38:44;101295.03;;;6.39;97.54
33075;BME280;19433;51.292;6.868;2023-03-04T09:41:18;101280.66;;;6.45;96.44
33075;BME280;19433;51.292;6.868;2023-03-04T09:43:44;101291.06;;;6.77;95.22
33075;BME280;19433;51.292;6.868;2023-03-04T09:46:14;101290.44;;;6.83;95.03
33075;BME280;19433;51.292;6.868;2023-03-04T09:48:48;101294.91;;;7.10;92.73
33075;BME280;19433;51.292;6.868;2023-03-04T09:51:18;101288.47;;;6.75;95.43
33075;BME280;19433;51.292;6.868;2023-03-04T09:56:15;101270.06;;;7.19;93.63
33075;BME280;19433;51.292;6.868;2023-03-04T09:58:48;101272.69;;;7.29;91.14
33075;BME280;19433;51.292;6.868;2023-03-04T10:01:23;101283.16;;;7.25;92.34
33075;BME280;19433;51.292;6.868;2023-03-04T10:04:09;101274.59;;;7.28;90.93
33075;BME280;19433;51.292;6.868;2023-03-04T10:06:39;101272.88;;;7.27;89.30
33075;BME280;19433;51.292;6.868;2023-03-04T10:09:20;101277.69;;;7.33;88.16
33075;BME280;19433;51.292;6.868;2023-03-04T10:11:50;101265.06;;;7.15;88.02
33075;BME280;19433;51.292;6.868;2023-03-04T10:14:43;101273.88;;;6.75;89.85
33075;BME280;19433;51.292;6.868;2023-03-04T10:20:25;101277.16;;;6.78;92.15
33075;BME280;19433;51.292;6.868;2023-03-04T10:23:09;101270.91;;;6.86;92.05
33075;BME280;19433;51.292;6.868;2023-03-04T10:25:37;101271.31;;;6.99;91.84
33075;BME280;19433;51.292;6.868;2023-03-04T10:28:12;101257.53;;;6.91;90.85
33075;BME280;19433;51.292;6.868;2023-03-04T10:30:52;101265.00;;;6.81;91.86
33075;BME280;19433;51.292;6.868;2023-03-04T10:33:24;101257.84;;;7.48;90.81
33075;BME280;19433;51.292;6.868;2023-03-04T10:35:54;101258.06;;;8.21;88.02
33075;BME280;19433;51.292;6.868;2023-03-04T10:38:22;101258.25;;;8.76;82.56
33075;BME280;19433;51.292;6.868;2023-03-04T10:40:48;101249.31;;;8.58;82.73
33075;BME280;19433;51.292;6.868;2023-03-04T10:43:15;101254.56;;;8.10;81.46
33075;BME280;19433;51.292;6.868;2023-03-04T10:45:41;101256.16;;;8.29;82.69
33075;BME280;19433;51.292;6.868;2023-03-04T10:48:17;101253.78;;;8.34;82.43
33075;BME280;19433;51.292;6.868;2023-03-04T10:50:43;101241.41;;;8.38;82.20
33075;BME280;19433;51.292;6.868;2023-03-04T10:53:29;101256.72;;;8.57;80.63
33075;BME280;19433;51.292;6.868;2023-03-04T10:55:57;101252.06;;;8.74;80.81
33075;BME280;19433;51.292;6.868;2023-03-04T10:58:23;101252.94;;;8.82;81.18
33075;BME280;19433;51.292;6.868;2023-03-04T11:01:13;101238.84;;;8.53;79.78
33075;BME280;19433;51.292;6.868;2023-03-04T11:03:45;101239.88;;;8.36;80.57
33075;BME280;19433;51.292;6.868;2023-03-04T11:06:19;101242.81;;;7.76;82.32
33075;BME280;19433;51.292;6.868;2023-03-04T11:08:52;101244.81;;;6.90;88.25
33075;BME280;19433;51.292;6.868;2023-03-04T11:11:23;101246.47;;;7.09;89.34
33075;BME280;19433;51.292;6.868;2023-03-04T11:13:58;101235.00;;;7.13;89.82
33075;BME280;19433;51.292;6.868;2023-03-04T11:16:26;101246.22;;;7.70;87.42
33075;BME280;19433;51.292;6.868;2023-03-04T11:18:55;101243.28;;;8.46;82.83
33075;BME280;19433;51.292;6.868;2023-03-04T11:21:26;101236.38;;;8.91;79.18
33075;BME280;19433;51.292;6.868;2023-03-04T11:23:59;101227.28;;;8.66;79.97
33075;BME280;19433;51.292;6.868;2023-03-04T11:26:44;101228.81;;;8.20;80.73
33075;BME280;19433;51.292;6.868;2023-03-04T11:34:30;101231.09;;;7.66;85.47
33075;BME280;19433;51.292;6.868;2023-03-04T11:37:18;101210.59;;;7.52;86.59
33075;BME280;19433;51.292;6.868;2023-03-04T11:39:51;101203.50;;;8.00;85.09
33075;BME280;19433;51.292;6.868;2023-03-04T11:42:40;101217.44;;;8.96;81.31
33075;BME280;19433;51.292;6.868;2023-03-04T11:51:43;101203.38;;;9.22;77.38
33075;BME280;19433;51.292;6.868;2023-03-04T11:54:40;101202.75;;;9.03;77.38
33075;BME280;19433;51.292;6.868;2023-03-04T12:00:01;101202.31;;;8.67;79.09
33075;BME280;19433;51.292;6.868;2023-03-04T12:02:36;101184.72;;;7.79;82.67
33075;BME280;19433;51.292;6.868;2023-03-04T12:05:17;101181.66;;;7.98;82.14
33075;BME280;19433;51.292;6.868;2023-03-04T12:07:52;101183.69;;;7.80;83.29
33075;BME280;19433;51.292;6.868;2023-03-04T12:11:09;101178.88;;;7.74;82.49
33075;BME280;19433;51.292;6.868;2023-03-04T12:13:27;101176.47;;;7.79;83.69
33075;BME280;19433;51.292;6.868;2023-03-04T12:21:57;101167.53;;;7.85;83.94
33075;BME280;19433;51.292;6.868;2023-03-04T12:27:32;101150.28;;;7.51;86.73
33075;BME280;19433;51.292;6.868;2023-03-04T12:30:05;101156.66;;;7.59;86.36
33075;BME280;19433;51.292;6.868;2023-03-04T12:32:53;101140.28;;;7.41;86.69
33075;BME280;19433;51.292;6.868;2023-03-04T12:35:45;101154.09;;;7.82;85.08
33075;BME280;19433;51.292;6.868;2023-03-04T12:38:33;101140.91;;;8.18;83.88
33075;BME280;19433;51.292;6.868;2023-03-04T12:44:06;101145.13;;;8.86;80.39
33075;BME280;19433;51.292;6.868;2023-03-04T12:47:12;101133.28;;;8.61;80.63
33075;BME280;19433;51.292;6.868;2023-03-04T12:55:07;101126.09;;;7.95;84.18
33075;BME280;19433;51.292;6.868;2023-03-04T12:57:33;101112.66;;;7.67;86.93
33075;BME280;19433;51.292;6.868;2023-03-04T13:02:49;101127.81;;;7.88;87.88
33075;BME280;19433;51.292;6.868;2023-03-04T13:09:14;101124.41;;;7.94;87.32
33075;BME280;19433;51.292;6.868;2023-03-04T13:11:52;101129.34;;;7.82;88.70
33075;BME280;19433;51.292;6.868;2023-03-04T13:14:25;101132.97;;;7.74;88.96
33075;BME280;19433;51.292;6.868;2023-03-04T13:38:34;101106.78;;;6.28;100.00
33075;BME280;19433;51.292;6.868;2023-03-04T13:41:19;101101.03;;;6.13;100.00
33075;BME280;19433;51.292;6.868;2023-03-04T13:48:45;101085.00;;;6.86;100.00
33075;BME280;19433;51.292;6.868;2023-03-04T13:51:32;101088.84;;;7.10;100.00
33075;BME280;19433;51.292;6.868;2023-03-04T13:56:43;101081.00;;;7.31;98.40
33075;BME280;19433;51.292;6.868;2023-03-04T14:02:12;101079.28;;;7.38;96.85
33075;BME280;19433;51.292;6.868;2023-03-04T14:04:55;101072.06;;;7.37;96.29
33075;BME280;19433;51.292;6.868;2023-03-04T14:07:25;101073.31;;;7.59;96.10
33075;BME280;19433;51.292;6.868;2023-03-04T14:12:25;101075.19;;;7.58;95.81
33075;BME280;19433;51.292;6.868;2023-03-04T14:14:53;101067.97;;;7.49;96.98
33075;BME280;19433;51.292;6.868;2023-03-04T14:17:22;101052.50;;;7.40;96.80
33075;BME280;19433;51.292;6.868;2023-03-04T14:19:49;101067.75;;;7.34;96.62
33075;BME280;19433;51.292;6.868;2023-03-04T14:22:27;101054.50;;;7.22;96.09